Time;durP1;ratioP1;P1;durP2;ratioP2;P2;SDS_P1;SDS_P2;PMS_P1;PMS_P2;Temp;Humidity;BMP_temperature;BMP_pressure;BME280_temperature;BME280_humidity;BME280_pressure;Samples;Min_cycle;Max_cycle;Signal;HPM_P1;HPM_P2
2021/11/19 00:01:15;;;;;;;0.05;0.05;;;;;;;14.52;71.17;102269.59;7363597;19;20014;-64
2021/11/19 00:03:42;;;;;;;0.00;0.00;;;;;;;14.47;71.02;102273.16;7257640;19;2004587;-64
2021/11/19 00:06:09;;;;;;;0.10;0.10;;;;;;;14.47;71.36;102278.41;7361950;19;20018;-64
2021/11/19 00:08:35;;;;;;;0.00;0.00;;;;;;;14.41;70.99;102270.59;7361086;19;20010;-64
2021/11/19 00:11:05;;;;;;;0.00;0.00;;;;;;;14.47;71.53;102291.53;7360211;19;20070;-63
2021/11/19 00:13:30;;;;;;;0.10;0.10;;;;;;;14.43;71.33;102279.31;7357958;19;20086;-64
2021/11/19 00:15:57;;;;;;;0.00;0.00;;;;;;;14.43;71.50;102274.06;7357903;19;20017;-64
2021/11/19 00:18:23;;;;;;;0.00;0.00;;;;;;;14.43;71.64;102292.47;7361334;19;20478;-64
2021/11/19 00:20:48;;;;;;;0.00;0.00;;;;;;;14.43;71.25;102301.22;7361619;19;20013;-64
2021/11/19 00:23:15;;;;;;;0.00;0.00;;;;;;;14.42;71.63;102281.09;7356789;19;20006;-64
2021/11/19 00:25:40;;;;;;;0.10;0.10;;;;;;;14.40;71.86;102292.53;7353131;19;20482;-64
2021/11/19 00:28:07;;;;;;;0.03;0.03;;;;;;;14.42;71.33;102288.09;7357548;19;20006;-63
2021/11/19 00:30:34;;;;;;;0.10;0.10;;;;;;;14.41;71.46;102286.38;7360280;19;20007;-63
2021/11/19 00:33:00;;;;;;;0.00;0.00;;;;;;;14.40;71.88;102284.66;7359493;19;20122;-64
2021/11/19 00:35:26;;;;;;;0.00;0.00;;;;;;;14.38;71.96;102281.16;7357150;19;20098;-64
2021/11/19 00:37:54;;;;;;;0.00;0.00;;;;;;;14.38;71.59;102281.16;7351718;19;20011;-64
2021/11/19 00:40:30;;;;;;;0.10;0.10;;;;;;;14.41;71.78;102299.53;7356372;19;20021;-63
2021/11/19 00:42:56;;;;;;;0.10;0.10;;;;;;;14.39;71.61;102293.38;7358267;19;20029;-64
2021/11/19 00:45:24;;;;;;;0.05;0.05;;;;;;;14.37;71.74;102284.66;7360219;19;20018;-64
2021/11/19 00:47:51;;;;;;;0.08;0.08;;;;;;;14.38;71.88;102289.03;7357475;19;20015;-64
2021/11/19 00:50:17;;;;;;;0.10;0.10;;;;;;;14.34;71.72;102279.44;7357285;19;20037;-64
2021/11/19 00:52:42;;;;;;;0.00;0.00;;;;;;;14.38;71.81;102291.66;7358181;19;20006;-64
2021/11/19 00:55:10;;;;;;;0.10;0.10;;;;;;;14.39;71.86;102288.13;7358954;19;20101;-64
2021/11/19 00:57:35;;;;;;;0.10;0.10;;;;;;;14.37;71.74;102288.16;7359248;19;20013;-64
2021/11/19 01:00:05;;;;;;;0.10;0.10;;;;;;;14.40;71.86;102284.66;7359621;19;20010;-64
2021/11/19 01:02:31;;;;;;;0.10;0.10;;;;;;;14.36;71.89;102286.44;7358247;19;20498;-63
2021/11/19 01:04:57;;;;;;;0.10;0.10;;;;;;;14.36;71.62;102275.06;7360799;19;20127;-63
2021/11/19 01:07:23;;;;;;;0.10;0.10;;;;;;;14.37;71.76;102284.66;7362557;19;20039;-63
2021/11/19 01:09:52;;;;;;;0.10;0.10;;;;;;;14.39;71.26;102275.00;7361070;19;20585;-63
2021/11/19 01:12:26;;;;;;;0.00;0.00;;;;;;;14.40;71.18;102279.38;7360848;19;20089;-64
2021/11/19 01:14:59;;;;;;;0.10;0.10;;;;;;;14.27;71.55;102253.25;7356949;19;20015;-63
2021/11/19 01:17:36;;;;;;;0.00;0.00;;;;;;;14.40;71.32;102284.66;7361641;19;20470;-63
2021/11/19 01:20:29;;;;;;;0.10;0.10;;;;;;;14.38;71.31;102278.53;7361432;19;20015;-64
2021/11/19 01:22:57;;;;;;;0.00;0.00;;;;;;;14.36;71.05;102282.94;7258208;19;2004398;-64
2021/11/19 01:25:26;;;;;;;0.00;0.00;;;;;;;14.31;71.05;102279.50;7360881;19;20029;-64
2021/11/19 01:27:51;;;;;;;0.00;0.00;;;;;;;14.33;71.23;102277.72;7362115;19;20023;-63
2021/11/19 01:30:22;;;;;;;0.08;0.08;;;;;;;14.34;70.68;102284.69;7361815;19;20013;-64
2021/11/19 01:32:48;;;;;;;0.10;0.10;;;;;;;14.32;70.82;102275.97;7358336;19;20011;-64
2021/11/19 01:35:14;;;;;;;0.05;0.05;;;;;;;14.32;70.53;102278.59;7361533;19;20015;-64
2021/11/19 01:37:41;;;;;;;0.10;0.10;;;;;;;14.32;70.94;102282.09;7361040;19;20006;-64
2021/11/19 01:40:10;;;;;;;0.10;0.10;;;;;;;14.34;70.79;102275.06;7361337;19;20831;-63
2021/11/19 01:42:42;;;;;;;0.10;0.10;;;;;;;14.35;70.40;102281.22;7356358;19;20070;-64
2021/11/19 01:45:07;;;;;;;0.10;0.10;;;;;;;14.32;70.62;102276.84;7360027;19;20015;-64
2021/11/19 01:47:35;;;;;;;0.00;0.00;;;;;;;14.34;70.34;102279.44;7359198;19;20010;-64
2021/11/19 01:50:03;;;;;;;0.03;0.03;;;;;;;14.34;70.30;102280.31;7362681;19;20407;-64
2021/11/19 01:52:51;;;;;;;0.10;0.10;;;;;;;14.37;70.04;102279.41;7359297;19;20010;-63
2021/11/19 01:55:25;;;;;;;0.10;0.10;;;;;;;14.36;69.82;102264.53;7359155;19;20657;-63
2021/11/19 01:58:14;;;;;;;0.00;0.00;;;;;;;14.40;69.98;102271.50;7355367;19;20015;-64
2021/11/19 02:00:46;;;;;;;0.10;0.10;;;;;;;14.38;69.85;102265.38;7359670;19;20035;-63
2021/11/19 02:03:14;;;;;;;0.03;0.03;;;;;;;14.38;69.39;102270.63;7361203;19;20005;-63
2021/11/19 02:05:49;;;;;;;0.05;0.05;;;;;;;14.38;69.53;102265.38;7359150;19;20478;-63
2021/11/19 02:08:18;;;;;;;0.10;0.10;;;;;;;14.38;69.38;102262.75;7360036;19;20006;-63
2021/11/19 02:11:16;;;;;;;0.00;0.00;;;;;;;14.41;69.87;102257.47;7354849;19;20079;-63
2021/11/19 02:13:44;;;;;;;0.10;0.10;;;;;;;14.39;69.74;102262.72;7253584;19;2004294;-64
2021/11/19 02:16:19;;;;;;;0.10;0.10;;;;;;;14.39;69.36;102260.09;7360224;19;20010;-64
2021/11/19 02:18:51;;;;;;;0.10;0.10;;;;;;;14.39;69.62;102256.59;7357064;19;20010;-64
2021/11/19 02:21:23;;;;;;;0.10;0.10;;;;;;;14.37;69.81;102261.03;7354868;19;20014;-64
2021/11/19 02:24:03;;;;;;;0.03;0.03;;;;;;;14.38;69.50;102260.13;7363126;19;20007;-64
2021/11/19 02:26:36;;;;;;;0.10;0.10;;;;;;;14.37;69.65;102263.66;7361940;19;20034;-63
2021/11/19 02:29:04;;;;;;;0.00;0.00;;;;;;;14.31;69.51;102258.47;7362995;19;20010;-63
2021/11/19 02:31:34;;;;;;;0.10;0.10;;;;;;;14.35;69.60;102260.19;7364982;19;20002;-63
2021/11/19 02:34:03;;;;;;;0.10;0.10;;;;;;;14.36;69.44;102262.78;7361236;19;20022;-64
2021/11/19 02:36:55;;;;;;;0.10;0.10;;;;;;;14.38;69.80;102260.13;7368323;19;20038;-63
2021/11/19 02:39:26;;;;;;;0.00;0.00;;;;;;;14.34;69.50;102254.03;7370519;19;20089;-64
2021/11/19 02:41:57;;;;;;;0.10;0.10;;;;;;;14.20;69.38;102241.09;7368585;19;20002;-64
2021/11/19 02:44:25;;;;;;;0.00;0.00;;;;;;;14.26;69.33;102248.03;7369730;19;20027;-63
2021/11/19 02:46:57;;;;;;;0.10;0.10;;;;;;;14.17;69.47;102243.75;7367806;19;20435;-63
2021/11/19 02:49:24;;;;;;;0.10;0.10;;;;;;;14.12;69.25;102252.59;7367440;19;20114;-63
2021/11/19 02:51:50;;;;;;;0.00;0.00;;;;;;;14.05;69.43;102257.06;7369151;19;20021;-64
2021/11/19 02:54:19;;;;;;;0.00;0.00;;;;;;;13.99;69.62;102254.50;7365406;19;20467;-64
2021/11/19 02:56:46;;;;;;;0.00;0.00;;;;;;;13.91;69.67;102259.84;7368322;19;20087;-63
2021/11/19 02:59:13;;;;;;;0.08;0.08;;;;;;;13.85;69.92;102246.78;7354049;19;20014;-63
2021/11/19 03:01:44;;;;;;;0.10;0.10;;;;;;;13.80;69.77;102247.72;7368126;19;20015;-64
2021/11/19 03:04:14;;;;;;;0.00;0.00;;;;;;;13.72;69.95;102248.66;7369935;19;20425;-63
2021/11/19 03:06:46;;;;;;;0.00;0.00;;;;;;;13.64;70.41;102250.53;7367539;19;20026;-64
2021/11/19 03:09:14;;;;;;;0.00;0.00;;;;;;;13.59;70.21;102247.06;7370303;19;20030;-63
2021/11/19 03:11:40;;;;;;;0.10;0.10;;;;;;;13.46;70.40;102241.06;7360327;19;20038;-64
2021/11/19 03:14:07;;;;;;;0.10;0.10;;;;;;;13.46;70.93;102246.31;7368670;19;20029;-64
2021/11/19 03:16:34;;;;;;;0.00;0.00;;;;;;;13.41;70.97;102247.25;7367356;19;20025;-63
2021/11/19 03:19:00;;;;;;;0.00;0.00;;;;;;;13.36;70.98;102249.03;7369372;19;20011;-63
2021/11/19 03:21:25;;;;;;;0.00;0.00;;;;;;;13.32;71.19;102247.34;7367443;19;20485;-64
2021/11/19 03:23:53;;;;;;;0.00;0.00;;;;;;;13.26;71.29;102242.16;7366221;19;20010;-64
2021/11/19 03:26:19;;;;;;;;;;;;;;;13.25;70.50;102241.28;7370629;19;20006;-64
2021/11/19 03:28:44;;;;;;;0.00;0.00;;;;;;;13.16;71.69;102239.56;7368595;19;19937;-64
2021/11/19 03:31:12;;;;;;;0.00;0.00;;;;;;;13.13;71.87;102244.84;7359634;19;20014;-64
2021/11/19 03:33:38;;;;;;;;;;;;;;;13.12;70.13;102239.59;7370218;19;20014;-64
2021/11/19 03:36:06;;;;;;;0.10;0.10;;;;;;;13.04;71.74;102242.31;7367771;19;20018;-63
2021/11/19 03:38:35;;;;;;;0.10;0.10;;;;;;;12.98;72.14;102238.00;7369593;19;20018;-64
2021/11/19 03:41:02;;;;;;;0.00;0.00;;;;;;;12.87;72.22;102229.31;7365465;19;20018;-63
2021/11/19 03:43:35;;;;;;;0.00;0.00;;;;;;;12.64;72.34;102194.56;7362930;19;20020;-64
2021/11/19 03:46:05;;;;;;;0.00;0.00;;;;;;;12.86;72.69;102231.94;7365124;19;20046;-63
2021/11/19 03:48:31;;;;;;;0.10;0.10;;;;;;;12.82;73.39;102240.72;7364303;19;20010;-64
2021/11/19 03:51:02;;;;;;;0.00;0.00;;;;;;;12.80;73.17;102234.63;7367473;19;20020;-63
2021/11/19 03:53:29;;;;;;;0.00;0.00;;;;;;;12.68;73.03;102225.97;7367307;19;20018;-64
2021/11/19 03:55:56;;;;;;;0.00;0.00;;;;;;;12.76;73.36;102243.38;7366109;19;20073;-63
2021/11/19 03:58:25;;;;;;;0.10;0.10;;;;;;;12.73;73.57;102249.53;7366645;19;20023;-64
2021/11/19 04:00:58;;;;;;;0.00;0.00;;;;;;;12.72;73.71;102245.16;7367485;19;20014;-64
2021/11/19 04:03:25;;;;;;;0.10;0.10;;;;;;;12.69;73.63;102240.81;7366653;19;20046;-64
2021/11/19 04:05:51;;;;;;;0.00;0.00;;;;;;;12.68;73.80;102249.56;7361272;19;20026;-63
2021/11/19 04:08:16;;;;;;;0.00;0.00;;;;;;;12.66;73.57;102240.81;7366171;19;20011;-64
2021/11/19 04:10:43;;;;;;;0.00;0.00;;;;;;;12.65;74.29;102232.97;7363996;19;20014;-63
2021/11/19 04:13:09;;;;;;;0.00;0.00;;;;;;;12.63;74.04;102226.91;7368710;19;20013;-63
2021/11/19 04:15:38;;;;;;;0.00;0.00;;;;;;;12.63;74.29;102222.53;7361614;19;20006;-62
2021/11/19 04:18:05;;;;;;;0.00;0.00;;;;;;;12.61;74.16;102233.88;7364550;19;20026;-63
2021/11/19 04:20:31;;;;;;;0.00;0.00;;;;;;;12.58;74.25;102232.16;7367253;19;20089;-63
2021/11/19 04:22:57;;;;;;;0.00;0.00;;;;;;;12.57;74.36;102230.44;7366854;19;20035;-63
2021/11/19 04:25:24;;;;;;;0.00;0.00;;;;;;;12.58;74.88;102242.66;7366442;19;20562;-63
2021/11/19 04:27:50;;;;;;;0.00;0.00;;;;;;;12.56;74.15;102236.53;7369992;19;20010;-64
2021/11/19 04:30:20;;;;;;;0.10;0.10;;;;;;;12.54;74.53;102222.56;7368118;19;20022;-62
2021/11/19 04:32:45;;;;;;;0.00;0.00;;;;;;;12.54;74.82;102235.69;7365028;19;20006;-63
2021/11/19 04:35:11;;;;;;;0.00;0.00;;;;;;;12.51;74.96;102230.44;7368397;19;20010;-63
2021/11/19 04:37:36;;;;;;;0.00;0.00;;;;;;;12.50;74.60;102233.94;7367265;19;20013;-64
2021/11/19 04:40:04;;;;;;;0.00;0.00;;;;;;;12.50;74.57;102244.44;7367073;19;20077;-64
2021/11/19 04:42:29;;;;;;;0.10;0.10;;;;;;;12.48;74.99;102240.97;7368731;19;20007;-63
2021/11/19 04:44:55;;;;;;;0.00;0.00;;;;;;;12.46;74.90;102240.06;7368868;19;20489;-63
2021/11/19 04:47:21;;;;;;;0.10;0.10;;;;;;;12.45;74.97;102240.97;7368324;19;20025;-63
2021/11/19 04:49:46;;;;;;;0.00;0.00;;;;;;;12.44;74.94;102239.22;7366442;19;20038;-64
2021/11/19 04:52:14;;;;;;;0.03;0.03;;;;;;;12.44;75.15;102241.84;7365691;19;20014;-64
2021/11/19 04:54:40;;;;;;;0.03;0.03;;;;;;;12.44;75.15;102236.63;7364005;19;20024;-64
2021/11/19 04:57:07;;;;;;;0.00;0.00;;;;;;;12.42;75.29;102226.16;7368165;19;20778;-64
2021/11/19 04:59:33;;;;;;;0.00;0.00;;;;;;;12.45;75.40;102230.47;7368733;19;20094;-64
2021/11/19 05:02:03;;;;;;;0.03;0.03;;;;;;;12.46;75.41;102237.47;7362288;19;20097;-63
2021/11/19 05:04:29;;;;;;;0.00;0.00;;;;;;;12.33;75.27;102214.84;7366057;19;20086;-64
2021/11/19 05:06:54;;;;;;;0.10;0.10;;;;;;;12.45;74.45;102238.34;7367691;19;20014;-64
2021/11/19 05:09:21;;;;;;;0.00;0.00;;;;;;;12.37;75.04;102229.69;7365692;19;20380;-63
2021/11/19 05:11:54;;;;;;;0.00;0.00;;;;;;;12.44;75.28;102236.63;7368068;19;20011;-64
2021/11/19 05:14:20;;;;;;;0.00;0.00;;;;;;;12.41;75.48;102234.00;7364823;19;20022;-64
2021/11/19 05:16:46;;;;;;;0.10;0.10;;;;;;;12.40;74.75;102232.25;7364851;19;20106;-63
2021/11/19 05:19:12;;;;;;;0.00;0.00;;;;;;;12.38;75.37;102234.03;7365242;19;20009;-64
2021/11/19 05:21:37;;;;;;;0.00;0.00;;;;;;;12.27;75.24;102221.00;7366639;19;20022;-62
2021/11/19 05:24:06;;;;;;;0.00;0.00;;;;;;;12.34;75.37;102238.41;7366894;19;20023;-64
2021/11/19 05:26:32;;;;;;;0.00;0.00;;;;;;;12.33;75.27;102233.19;7367757;19;20467;-64
2021/11/19 05:28:58;;;;;;;0.00;0.00;;;;;;;12.31;75.28;102237.53;7365653;19;20010;-64
2021/11/19 05:31:24;;;;;;;0.00;0.00;;;;;;;12.29;74.85;102236.69;7366490;19;20006;-64
2021/11/19 05:33:50;;;;;;;0.00;0.00;;;;;;;12.28;75.26;102242.81;7365442;19;20034;-64
2021/11/19 05:36:16;;;;;;;0.00;0.00;;;;;;;12.26;75.48;102242.81;7365771;19;20082;-64
2021/11/19 05:38:42;;;;;;;0.00;0.00;;;;;;;12.24;75.26;102244.56;7364417;19;20074;-64
2021/11/19 05:41:11;;;;;;;0.10;0.10;;;;;;;12.23;75.29;102247.22;7366405;19;20849;-64
2021/11/19 05:43:39;;;;;;;0.03;0.03;;;;;;;12.22;75.57;102248.09;7365735;19;20328;-64
2021/11/19 05:46:06;;;;;;;0.00;0.00;;;;;;;12.20;75.48;102246.31;7362172;19;20023;-63
2021/11/19 05:48:31;;;;;;;0.00;0.00;;;;;;;12.19;75.43;102241.97;7364336;19;20576;-63
2021/11/19 05:50:57;;;;;;;0.00;0.00;;;;;;;12.17;75.35;102241.13;7364451;19;20011;-63
2021/11/19 05:53:23;;;;;;;0.08;0.08;;;;;;;12.16;75.56;102244.59;7364399;19;20044;-64
2021/11/19 05:55:49;;;;;;;0.00;0.00;;;;;;;12.17;75.58;102246.34;7365580;19;20044;-63
2021/11/19 05:58:16;;;;;;;0.00;0.00;;;;;;;12.16;75.33;102249.84;7364490;19;20032;-63
2021/11/19 06:00:55;;;;;;;0.10;0.10;;;;;;;12.14;75.78;102241.13;7362653;19;20014;-63
2021/11/19 06:03:21;;;;;;;0.00;0.00;;;;;;;12.03;75.31;102227.22;7363163;19;20660;-64
2021/11/19 06:05:47;;;;;;;0.00;0.00;;;;;;;12.16;75.29;102255.06;7366206;19;20018;-64
2021/11/19 06:08:13;;;;;;;0.10;0.10;;;;;;;12.17;75.91;102241.13;7365054;19;20415;-64
2021/11/19 06:10:49;;;;;;;0.00;0.00;;;;;;;12.10;75.61;102239.38;7371242;19;20024;-64
2021/11/19 06:13:16;;;;;;;0.00;0.00;;;;;;;12.08;75.78;102235.06;7371524;19;20015;-64
2021/11/19 06:15:49;;;;;;;0.05;0.05;;;;;;;12.24;75.90;102259.41;7370284;19;20022;-63
2021/11/19 06:18:22;;;;;;;0.00;0.00;;;;;;;12.27;75.58;102264.66;7371094;19;20487;-64
2021/11/19 06:20:52;;;;;;;0.00;0.00;;;;;;;12.22;75.75;102258.56;7372356;19;20516;-64
2021/11/19 06:23:22;;;;;;;0.00;0.00;;;;;;;12.30;75.64;102268.09;7370554;19;20127;-63
2021/11/19 06:25:48;;;;;;;0.00;0.00;;;;;;;12.30;76.08;102268.09;7368647;19;20030;-64
2021/11/19 06:28:19;;;;;;;0.00;0.00;;;;;;;12.36;75.89;102275.94;7370526;19;20015;-63
2021/11/19 06:30:45;;;;;;;0.10;0.10;;;;;;;12.37;75.90;102266.34;7371929;19;20015;-63
2021/11/19 06:33:10;;;;;;;0.00;0.00;;;;;;;12.36;75.85;102256.72;7372254;19;20006;-63
2021/11/19 06:35:36;;;;;;;0.00;0.00;;;;;;;12.37;75.54;102259.38;7369237;19;20022;-63
2021/11/19 06:38:03;;;;;;;0.00;0.00;;;;;;;12.48;75.69;102267.16;7373275;19;20094;-64
2021/11/19 06:40:34;;;;;;;0.00;0.00;;;;;;;12.52;75.59;102279.38;7369519;19;20725;-64
2021/11/19 06:43:00;;;;;;;0.00;0.00;;;;;;;12.44;75.79;102265.44;7369167;19;20453;-64
2021/11/19 06:45:27;;;;;;;0.00;0.00;;;;;;;12.56;75.76;102283.69;7369340;19;20026;-63
2021/11/19 06:47:53;;;;;;;0.00;0.00;;;;;;;12.59;75.67;102282.81;7367860;19;20382;-64
2021/11/19 06:50:22;;;;;;;0.10;0.10;;;;;;;12.60;75.50;102277.56;7371640;19;20077;-64
2021/11/19 06:52:47;;;;;;;0.00;0.00;;;;;;;12.56;75.72;102281.06;7370682;19;20767;-64
2021/11/19 06:55:14;;;;;;;0.00;0.00;;;;;;;12.68;75.61;102283.63;7371088;19;20006;-64
2021/11/19 06:57:40;;;;;;;0.00;0.00;;;;;;;12.69;75.43;102288.00;7369365;19;20025;-63
2021/11/19 07:00:14;;;;;;;0.00;0.00;;;;;;;12.75;75.07;102288.84;7368231;19;20016;-64
2021/11/19 07:02:40;;;;;;;0.00;0.00;;;;;;;12.60;74.94;102271.44;7366518;19;20025;-63
2021/11/19 07:05:06;;;;;;;0.00;0.00;;;;;;;12.76;74.87;102295.81;7370804;19;20007;-64
2021/11/19 07:07:31;;;;;;;0.00;0.00;;;;;;;12.73;74.87;102299.34;7369951;19;21000;-64
2021/11/19 07:09:57;;;;;;;0.00;0.00;;;;;;;12.75;75.23;102307.19;7369963;19;20388;-64
2021/11/19 07:12:22;;;;;;;0.00;0.00;;;;;;;12.74;75.24;102306.31;7368861;19;20011;-63
2021/11/19 07:14:48;;;;;;;0.10;0.10;;;;;;;12.75;75.36;102307.19;7367789;19;20017;-64
2021/11/19 07:17:14;;;;;;;0.00;0.00;;;;;;;12.76;75.07;102308.91;7362419;19;20010;-64
2021/11/19 07:19:41;;;;;;;0.10;0.10;;;;;;;12.77;75.04;102306.28;7365927;19;20034;-63
2021/11/19 07:22:07;;;;;;;0.10;0.10;;;;;;;12.82;75.23;102314.13;7362568;19;20018;-64
2021/11/19 07:24:35;;;;;;;0.00;0.00;;;;;;;12.86;75.26;102315.84;7366141;19;20077;-64
2021/11/19 07:27:01;;;;;;;0.00;0.00;;;;;;;12.87;75.24;102312.34;7366216;19;20011;-64
2021/11/19 07:29:26;;;;;;;0.10;0.10;;;;;;;12.88;75.04;102319.34;7361916;19;21661;-64
2021/11/19 07:31:52;;;;;;;0.00;0.00;;;;;;;12.91;75.03;102324.56;7365144;19;20619;-64
2021/11/19 07:34:17;;;;;;;0.00;0.00;;;;;;;12.94;75.13;102329.78;7362089;19;20006;-64
2021/11/19 07:36:43;;;;;;;0.10;0.10;;;;;;;12.93;74.76;102325.44;7366199;19;20021;-64
2021/11/19 07:39:10;;;;;;;0.00;0.00;;;;;;;12.97;74.84;102328.00;7365224;19;20069;-64
2021/11/19 07:41:36;;;;;;;0.05;0.05;;;;;;;12.98;74.89;102331.53;7365284;19;20018;-64
2021/11/19 07:44:02;;;;;;;0.10;0.10;;;;;;;12.91;74.62;102320.19;7361543;19;21097;-64
2021/11/19 07:46:28;;;;;;;0.00;0.00;;;;;;;13.01;74.42;102336.72;7365893;19;20013;-64
2021/11/19 07:48:55;;;;;;;0.00;0.00;;;;;;;13.02;74.60;102335.84;7369987;19;20022;-64
2021/11/19 07:51:27;;;;;;;0.00;0.00;;;;;;;13.04;74.34;102341.09;7363834;19;20455;-64
2021/11/19 07:53:53;;;;;;;0.00;0.00;;;;;;;13.04;74.49;102343.72;7364453;19;20006;-63
2021/11/19 07:56:27;;;;;;;0.00;0.00;;;;;;;13.06;74.45;102340.19;7365768;19;21333;-64
2021/11/19 07:58:52;;;;;;;0.00;0.00;;;;;;;13.06;74.32;102344.56;7369269;19;20037;-63
2021/11/19 08:01:18;;;;;;;0.00;0.00;;;;;;;13.05;74.39;102333.22;7363078;19;20011;-64
2021/11/19 08:03:43;;;;;;;0.00;0.00;;;;;;;13.06;74.26;102340.19;7365533;19;20018;-63
2021/11/19 08:06:09;;;;;;;0.00;0.00;;;;;;;13.08;73.77;102343.69;7366953;19;20012;-64
2021/11/19 08:08:36;;;;;;;0.00;0.00;;;;;;;13.08;74.10;102343.69;7344808;19;20871;-64
2021/11/19 08:11:05;;;;;;;0.00;0.00;;;;;;;13.10;73.91;102346.28;7353155;19;20003;-63
2021/11/19 08:13:31;;;;;;;0.00;0.00;;;;;;;13.08;73.75;102343.69;7365013;19;20025;-64
2021/11/19 08:15:57;;;;;;;0.00;0.00;;;;;;;13.09;73.90;102345.44;7359599;19;20010;-63
2021/11/19 08:18:26;;;;;;;0.00;0.00;;;;;;;12.98;73.78;102327.16;7340792;19;20010;-64
2021/11/19 08:20:54;;;;;;;0.10;0.10;;;;;;;13.09;73.93;102340.19;7365209;19;20027;-64
2021/11/19 08:23:21;;;;;;;;;;;;;;;13.15;73.60;102348.00;7369392;19;20382;-64
2021/11/19 08:25:47;;;;;;;0.00;0.00;;;;;;;13.11;73.81;102348.03;7365123;19;19933;-64
2021/11/19 08:28:14;;;;;;;0.10;0.10;;;;;;;13.10;73.53;102352.41;7366573;19;20029;-64
2021/11/19 08:30:44;;;;;;;0.00;0.00;;;;;;;13.11;73.49;102354.13;7365939;19;20081;-64
2021/11/19 08:33:12;;;;;;;0.00;0.00;;;;;;;13.10;73.83;102357.66;7366804;19;20017;-64
2021/11/19 08:35:42;;;;;;;0.00;0.00;;;;;;;13.06;73.39;102349.81;7367390;19;20038;-64
2021/11/19 08:38:14;;;;;;;0.00;0.00;;;;;;;13.11;73.51;102359.38;7360393;19;20054;-64
2021/11/19 08:40:44;;;;;;;0.03;0.03;;;;;;;13.03;73.51;102348.09;7364978;19;20026;-63
2021/11/19 08:43:12;;;;;;;0.00;0.00;;;;;;;13.10;73.80;102352.41;7366812;19;20022;-64
2021/11/19 08:45:38;;;;;;;0.08;0.08;;;;;;;13.11;73.58;102348.03;7363262;19;20007;-64
2021/11/19 08:48:04;;;;;;;0.00;0.00;;;;;;;12.98;73.43;102331.53;7358480;19;20495;-64
2021/11/19 08:50:32;;;;;;;0.00;0.00;;;;;;;13.12;73.16;102355.88;7360501;19;20010;-64
2021/11/19 08:53:00;;;;;;;0.03;0.03;;;;;;;12.99;73.26;102328.00;7363753;19;20010;-64
2021/11/19 08:55:26;;;;;;;0.00;0.00;;;;;;;13.08;73.24;102338.44;7359715;19;20350;-63
2021/11/19 08:57:53;;;;;;;0.00;0.00;;;;;;;13.11;73.10;102343.66;7362695;19;20037;-64
2021/11/19 09:00:27;;;;;;;0.00;0.00;;;;;;;13.12;73.42;102345.38;7361158;19;20009;-64
2021/11/19 09:02:58;;;;;;;0.05;0.05;;;;;;;13.13;72.92;102347.16;7360279;19;20014;-63
2021/11/19 09:05:26;;;;;;;0.00;0.00;;;;;;;13.09;73.30;102342.81;7357777;19;20007;-64
2021/11/19 09:07:52;;;;;;;0.00;0.00;;;;;;;13.10;72.98;102347.16;7355516;19;20868;-63
2021/11/19 09:10:18;;;;;;;0.00;0.00;;;;;;;13.09;73.38;102345.44;7334524;19;20014;-65
2021/11/19 09:12:45;;;;;;;0.00;0.00;;;;;;;13.12;73.30;102362.88;7358611;19;20010;-64
2021/11/19 09:15:13;;;;;;;0.10;0.10;;;;;;;13.06;73.45;102344.56;7357101;19;20007;-64
2021/11/19 09:17:45;;;;;;;0.00;0.00;;;;;;;13.19;73.22;102362.84;7358136;19;20022;-63
2021/11/19 09:20:20;;;;;;;0.00;0.00;;;;;;;13.21;73.47;102360.19;7331784;19;20025;-64
2021/11/19 09:23:03;;;;;;;0.00;0.00;;;;;;;13.27;73.10;102354.06;7361224;19;20011;-63
2021/11/19 09:25:29;;;;;;;0.00;0.00;;;;;;;13.30;73.10;102364.56;7360332;19;20031;-64
2021/11/19 09:27:55;;;;;;;0.00;0.00;;;;;;;13.34;73.25;102361.03;7359468;19;20014;-64
2021/11/19 09:30:26;;;;;;;0.10;0.10;;;;;;;13.38;73.26;102373.22;7361370;19;20505;-64
2021/11/19 09:32:55;;;;;;;0.00;0.00;;;;;;;13.40;73.05;102361.84;7361360;19;20017;-64
2021/11/19 09:35:25;;;;;;;0.00;0.00;;;;;;;13.44;73.32;102375.81;7340142;19;20134;-63
2021/11/19 09:37:52;;;;;;;0.03;0.03;;;;;;;13.48;72.59;102364.38;7359935;19;21046;-64
2021/11/19 09:40:24;;;;;;;0.00;0.00;;;;;;;13.48;72.63;102359.13;7361426;19;20052;-63
2021/11/19 09:43:09;;;;;;;0.00;0.00;;;;;;;13.52;72.59;102368.75;7363776;19;20007;-64
2021/11/19 09:45:53;;;;;;;0.03;0.03;;;;;;;13.61;72.74;102375.66;7364767;19;20006;-64
2021/11/19 09:48:36;;;;;;;0.00;0.00;;;;;;;13.59;72.90;102369.56;7370319;19;20009;-64
2021/11/19 09:51:20;;;;;;;0.10;0.10;;;;;;;13.69;72.61;102373.88;7366663;19;20014;-63
2021/11/19 09:54:36;;;;;;;0.00;0.00;;;;;;;13.66;72.39;102369.50;7341819;19;20483;-64
2021/11/19 09:57:23;;;;;;;0.03;0.03;;;;;;;13.74;72.47;102380.81;7265755;19;2004476;-64
2021/11/19 10:00:13;;;;;;;0.00;0.00;;;;;;;13.77;72.12;102374.66;7366640;19;20014;-64
2021/11/19 10:02:55;;;;;;;0.00;0.00;;;;;;;13.73;72.50;102384.28;7366705;19;20014;-64
2021/11/19 10:05:39;;;;;;;0.10;0.10;;;;;;;13.80;71.93;102387.75;7359670;19;20010;-64
2021/11/19 10:08:16;;;;;;;0.08;0.08;;;;;;;13.81;72.19;102388.63;7366459;19;20078;-64
2021/11/19 10:11:11;;;;;;;0.00;0.00;;;;;;;13.84;72.09;102388.56;7366634;19;20006;-64
2021/11/19 10:13:38;;;;;;;0.00;0.00;;;;;;;13.83;72.19;102378.97;7267862;19;2004358;-64
2021/11/19 10:16:27;;;;;;;0.00;0.00;;;;;;;13.90;72.28;102383.28;7364315;19;20020;-63
2021/11/19 10:19:33;;;;;;;0.00;0.00;;;;;;;13.94;71.64;102390.25;7366294;19;20011;-64
2021/11/19 10:22:11;;;;;;;0.10;0.10;;;;;;;13.94;71.21;102390.25;7262943;19;2004310;-64
2021/11/19 10:25:04;;;;;;;0.00;0.00;;;;;;;13.95;71.52;102392.88;7361510;19;20010;-64
2021/11/19 10:27:54;;;;;;;0.05;0.05;;;;;;;14.01;71.33;102399.81;7264677;19;2004669;-64
2021/11/19 10:30:44;;;;;;;0.10;0.10;;;;;;;14.22;72.14;102401.34;7266351;19;2004678;-64
2021/11/19 10:33:10;;;;;;;0.10;0.10;;;;;;;14.40;71.40;102395.03;7368192;19;20023;-64
2021/11/19 10:36:10;;;;;;;0.10;0.10;;;;;;;14.82;72.68;102390.16;7367991;19;21500;-64
2021/11/19 10:39:11;;;;;;;0.00;0.00;;;;;;;15.35;72.01;102388.50;7261443;19;2004567;-64
2021/11/19 10:41:55;;;;;;;0.10;0.10;;;;;;;15.69;69.67;102384.47;7262348;19;2004007;-64
2021/11/19 10:44:51;;;;;;;0.10;0.10;;;;;;;16.22;70.42;102389.63;7362413;19;20766;-64
2021/11/19 10:47:24;;;;;;;0.10;0.10;;;;;;;16.49;67.26;102378.56;7263621;19;2004558;-64
2021/11/19 10:50:21;;;;;;;0.00;0.00;;;;;;;16.92;68.70;102384.72;7360222;19;20014;-64
2021/11/19 10:53:15;;;;;;;0.00;0.00;;;;;;;17.17;67.95;102372.69;7265401;19;2004539;-64
2021/11/19 10:56:02;;;;;;;0.00;0.00;;;;;;;17.35;66.04;102369.63;7265064;19;2004362;-63
2021/11/19 10:58:54;;;;;;;0.03;0.03;;;;;;;17.72;66.54;102376.63;7358964;19;20010;-64
2021/11/19 11:01:38;;;;;;;0.00;0.00;;;;;;;17.95;64.25;102376.06;7262127;19;2004503;-64
2021/11/19 11:04:30;;;;;;;0.00;0.00;;;;;;;18.23;64.64;102370.00;7363048;19;20814;-64
2021/11/19 11:07:14;;;;;;;0.10;0.10;;;;;;;18.45;63.87;102360.56;7264895;19;2004361;-64
2021/11/19 11:09:52;;;;;;;0.10;0.10;;;;;;;18.60;61.10;102353.91;7366147;19;20019;-63
2021/11/19 11:12:18;;;;;;;0.00;0.00;;;;;;;18.71;58.35;102359.81;7366361;19;20507;-64
2021/11/19 11:14:47;;;;;;;0.03;0.03;;;;;;;18.86;58.99;102354.06;7360354;19;20073;-64
2021/11/19 11:17:24;;;;;;;0.10;0.10;;;;;;;19.12;61.76;102355.00;7340633;19;20073;-63
2021/11/19 11:19:50;;;;;;;;;;;;;;;19.40;63.67;102358.47;7363381;19;21535;-63
2021/11/19 11:22:21;;;;;;;0.08;0.08;;;;;;;19.54;58.34;102354.50;7366363;19;19930;-64
2021/11/19 11:25:10;;;;;;;0.10;0.10;;;;;;;19.68;56.63;102350.50;7367184;19;20982;-64
2021/11/19 11:28:14;;;;;;;0.10;0.10;;;;;;;20.05;59.85;102353.63;7366214;19;20033;-63
2021/11/19 11:30:52;;;;;;;0.10;0.10;;;;;;;20.21;58.92;102360.97;7265749;19;2004079;-64
2021/11/19 11:33:30;;;;;;;0.00;0.00;;;;;;;20.29;57.19;102350.09;7362674;19;20035;-64
2021/11/19 11:36:13;;;;;;;0.10;0.10;;;;;;;20.39;55.11;102348.81;7368054;19;20021;-64
2021/11/19 11:39:05;;;;;;;0.10;0.10;;;;;;;20.54;58.21;102351.88;7363618;19;20581;-64
2021/11/19 11:41:38;;;;;;;0.10;0.10;;;;;;;20.55;53.37;102342.97;7237738;19;2004503;-64